sensor_id;sensor_type;location;lat;lon;timestamp;P1;durP1;ratioP1;P2;durP2;ratioP2
46701;SDS011;33449;50.712;7.124;2022-12-08T00:00:38;21.88;;;11.02;;
46701;SDS011;33449;50.712;7.124;2022-12-08T00:03:04;16.45;;;9.95;;
46701;SDS011;33449;50.712;7.124;2022-12-08T00:08:19;18.70;;;8.75;;
46701;SDS011;33449;50.712;7.124;2022-12-08T00:11:21;17.90;;;9.25;;
46701;SDS011;33449;50.712;7.124;2022-12-08T00:13:48;16.38;;;9.25;;
46701;SDS011;33449;50.712;7.124;2022-12-08T00:16:15;24.27;;;9.40;;
46701;SDS011;33449;50.712;7.124;2022-12-08T00:18:41;16.20;;;8.57;;
46701;SDS011;33449;50.712;7.124;2022-12-08T00:21:08;17.35;;;9.68;;
46701;SDS011;33449;50.712;7.124;2022-12-08T00:26:10;14.93;;;9.05;;
46701;SDS011;33449;50.712;7.124;2022-12-08T00:28:37;19.45;;;9.13;;
46701;SDS011;33449;50.712;7.124;2022-12-08T00:31:08;34.28;;;9.25;;
46701;SDS011;33449;50.712;7.124;2022-12-08T00:33:36;17.45;;;8.95;;
46701;SDS011;33449;50.712;7.124;2022-12-08T00:36:04;19.95;;;9.30;;
46701;SDS011;33449;50.712;7.124;2022-12-08T00:41:11;13.98;;;8.80;;
46701;SDS011;33449;50.712;7.124;2022-12-08T00:43:43;16.65;;;8.43;;
46701;SDS011;33449;50.712;7.124;2022-12-08T00:46:10;18.27;;;9.05;;
46701;SDS011;33449;50.712;7.124;2022-12-08T00:48:37;14.48;;;7.22;;
46701;SDS011;33449;50.712;7.124;2022-12-08T00:51:04;18.30;;;8.98;;
46701;SDS011;33449;50.712;7.124;2022-12-08T00:56:12;14.52;;;7.70;;
46701;SDS011;33449;50.712;7.124;2022-12-08T00:58:39;15.00;;;8.30;;
46701;SDS011;33449;50.712;7.124;2022-12-08T01:01:09;14.52;;;7.85;;
46701;SDS011;33449;50.712;7.124;2022-12-08T01:03:36;16.50;;;7.90;;
46701;SDS011;33449;50.712;7.124;2022-12-08T01:06:05;13.63;;;8.10;;
46701;SDS011;33449;50.712;7.124;2022-12-08T01:11:06;14.55;;;8.18;;
46701;SDS011;33449;50.712;7.124;2022-12-08T01:13:35;15.40;;;7.45;;
46701;SDS011;33449;50.712;7.124;2022-12-08T01:16:02;15.60;;;7.30;;
46701;SDS011;33449;50.712;7.124;2022-12-08T01:18:30;14.98;;;6.85;;
46701;SDS011;33449;50.712;7.124;2022-12-08T01:21:04;17.45;;;7.80;;
46701;SDS011;33449;50.712;7.124;2022-12-08T01:26:02;14.15;;;6.45;;
46701;SDS011;33449;50.712;7.124;2022-12-08T01:28:31;12.00;;;6.65;;
46701;SDS011;33449;50.712;7.124;2022-12-08T01:30:59;10.10;;;5.93;;
46701;SDS011;33449;50.712;7.124;2022-12-08T01:33:27;11.98;;;6.43;;
46701;SDS011;33449;50.712;7.124;2022-12-08T01:35:54;13.48;;;6.60;;
46701;SDS011;33449;50.712;7.124;2022-12-08T01:46:22;11.75;;;6.88;;
46701;SDS011;33449;50.712;7.124;2022-12-08T01:48:50;14.20;;;6.53;;
46701;SDS011;33449;50.712;7.124;2022-12-08T01:51:20;11.57;;;6.80;;
46701;SDS011;33449;50.712;7.124;2022-12-08T01:53:47;11.25;;;5.75;;
46701;SDS011;33449;50.712;7.124;2022-12-08T01:58:55;11.02;;;6.15;;
46701;SDS011;33449;50.712;7.124;2022-12-08T02:01:22;9.23;;;6.13;;
46701;SDS011;33449;50.712;7.124;2022-12-08T02:03:50;14.15;;;6.55;;
46701;SDS011;33449;50.712;7.124;2022-12-08T02:06:26;12.98;;;5.85;;
46701;SDS011;33449;50.712;7.124;2022-12-08T02:08:54;11.73;;;6.85;;
46701;SDS011;33449;50.712;7.124;2022-12-08T02:37:48;11.27;;;5.95;;
46701;SDS011;33449;50.712;7.124;2022-12-08T02:40:21;10.00;;;5.10;;
46701;SDS011;33449;50.712;7.124;2022-12-08T02:42:57;13.52;;;6.38;;
46701;SDS011;33449;50.712;7.124;2022-12-08T02:45:29;9.32;;;5.60;;
46701;SDS011;33449;50.712;7.124;2022-12-08T02:48:04;11.88;;;5.05;;
46701;SDS011;33449;50.712;7.124;2022-12-08T02:50:31;11.30;;;5.85;;
46701;SDS011;33449;50.712;7.124;2022-12-08T03:06:34;9.30;;;5.13;;
46701;SDS011;33449;50.712;7.124;2022-12-08T03:09:02;9.70;;;4.65;;
46701;SDS011;33449;50.712;7.124;2022-12-08T03:11:43;10.38;;;4.57;;
46701;SDS011;33449;50.712;7.124;2022-12-08T03:14:15;9.52;;;4.85;;
46701;SDS011;33449;50.712;7.124;2022-12-08T03:16:43;10.23;;;4.68;;
46701;SDS011;33449;50.712;7.124;2022-12-08T03:19:17;7.72;;;4.57;;
46701;SDS011;33449;50.712;7.124;2022-12-08T03:21:55;6.55;;;4.18;;
46701;SDS011;33449;50.712;7.124;2022-12-08T03:24:32;8.32;;;4.22;;
46701;SDS011;33449;50.712;7.124;2022-12-08T03:27:05;7.85;;;4.70;;
46701;SDS011;33449;50.712;7.124;2022-12-08T03:29:36;7.38;;;4.80;;
46701;SDS011;33449;50.712;7.124;2022-12-08T03:37:29;9.23;;;4.15;;
46701;SDS011;33449;50.712;7.124;2022-12-08T03:39:57;8.32;;;4.20;;
46701;SDS011;33449;50.712;7.124;2022-12-08T03:42:24;8.27;;;3.97;;
46701;SDS011;33449;50.712;7.124;2022-12-08T03:44:51;6.82;;;3.60;;
46701;SDS011;33449;50.712;7.124;2022-12-08T03:52:26;9.20;;;4.32;;
46701;SDS011;33449;50.712;7.124;2022-12-08T03:54:53;8.38;;;4.47;;
46701;SDS011;33449;50.712;7.124;2022-12-08T03:57:19;7.80;;;3.80;;
46701;SDS011;33449;50.712;7.124;2022-12-08T03:59:46;8.68;;;3.95;;
46701;SDS011;33449;50.712;7.124;2022-12-08T04:02:14;6.45;;;4.20;;
46701;SDS011;33449;50.712;7.124;2022-12-08T04:12:48;7.65;;;4.03;;
46701;SDS011;33449;50.712;7.124;2022-12-08T04:15:15;11.90;;;4.40;;
46701;SDS011;33449;50.712;7.124;2022-12-08T04:17:42;7.38;;;4.15;;
46701;SDS011;33449;50.712;7.124;2022-12-08T04:20:08;6.68;;;3.90;;
46701;SDS011;33449;50.712;7.124;2022-12-08T04:33:29;9.10;;;4.65;;
46701;SDS011;33449;50.712;7.124;2022-12-08T04:35:56;8.70;;;4.38;;
46701;SDS011;33449;50.712;7.124;2022-12-08T04:38:23;8.63;;;4.93;;
46701;SDS011;33449;50.712;7.124;2022-12-08T04:43:25;9.10;;;4.13;;
46701;SDS011;33449;50.712;7.124;2022-12-08T04:45:52;9.85;;;4.50;;
46701;SDS011;33449;50.712;7.124;2022-12-08T04:48:18;10.30;;;4.82;;
46701;SDS011;33449;50.712;7.124;2022-12-08T04:50:45;12.82;;;5.63;;
46701;SDS011;33449;50.712;7.124;2022-12-08T04:53:12;10.90;;;4.75;;
46701;SDS011;33449;50.712;7.124;2022-12-08T04:58:15;7.55;;;4.70;;
46701;SDS011;33449;50.712;7.124;2022-12-08T05:00:42;6.75;;;4.32;;
46701;SDS011;33449;50.712;7.124;2022-12-08T05:03:10;8.18;;;4.28;;
46701;SDS011;33449;50.712;7.124;2022-12-08T05:05:37;10.65;;;5.15;;
46701;SDS011;33449;50.712;7.124;2022-12-08T05:08:04;9.77;;;5.78;;
46701;SDS011;33449;50.712;7.124;2022-12-08T05:18:43;16.88;;;7.40;;
46701;SDS011;33449;50.712;7.124;2022-12-08T05:21:10;12.18;;;6.75;;
46701;SDS011;33449;50.712;7.124;2022-12-08T05:23:36;16.42;;;7.70;;
46701;SDS011;33449;50.712;7.124;2022-12-08T05:26:03;13.00;;;6.70;;
46701;SDS011;33449;50.712;7.124;2022-12-08T05:31:11;13.10;;;6.97;;
46701;SDS011;33449;50.712;7.124;2022-12-08T05:33:38;13.77;;;6.45;;
46701;SDS011;33449;50.712;7.124;2022-12-08T05:36:05;15.15;;;7.63;;
46701;SDS011;33449;50.712;7.124;2022-12-08T05:38:32;21.70;;;7.50;;
46701;SDS011;33449;50.712;7.124;2022-12-08T05:40:59;14.15;;;6.88;;
46701;SDS011;33449;50.712;7.124;2022-12-08T05:46:01;21.38;;;8.43;;
46701;SDS011;33449;50.712;7.124;2022-12-08T05:48:28;18.70;;;8.98;;
46701;SDS011;33449;50.712;7.124;2022-12-08T05:50:55;17.30;;;8.65;;
46701;SDS011;33449;50.712;7.124;2022-12-08T05:53:22;20.02;;;7.40;;
46701;SDS011;33449;50.712;7.124;2022-12-08T05:55:48;14.52;;;7.05;;
46701;SDS011;33449;50.712;7.124;2022-12-08T06:01:03;20.30;;;8.23;;
46701;SDS011;33449;50.712;7.124;2022-12-08T06:03:30;15.93;;;8.20;;
46701;SDS011;33449;50.712;7.124;2022-12-08T06:05:57;18.77;;;8.77;;
46701;SDS011;33449;50.712;7.124;2022-12-08T06:08:25;14.82;;;7.43;;
46701;SDS011;33449;50.712;7.124;2022-12-08T06:10:51;21.27;;;8.80;;
46701;SDS011;33449;50.712;7.124;2022-12-08T06:18:29;19.63;;;8.57;;
46701;SDS011;33449;50.712;7.124;2022-12-08T06:21:02;16.63;;;8.80;;
46701;SDS011;33449;50.712;7.124;2022-12-08T06:23:35;15.48;;;8.02;;
46701;SDS011;33449;50.712;7.124;2022-12-08T06:26:03;20.20;;;8.60;;
46701;SDS011;33449;50.712;7.124;2022-12-08T06:28:33;23.67;;;10.38;;
46701;SDS011;33449;50.712;7.124;2022-12-08T06:31:05;20.55;;;10.63;;
46701;SDS011;33449;50.712;7.124;2022-12-08T06:33:47;20.23;;;8.88;;
46701;SDS011;33449;50.712;7.124;2022-12-08T06:36:15;19.85;;;9.65;;
46701;SDS011;33449;50.712;7.124;2022-12-08T06:38:43;18.48;;;8.95;;
46701;SDS011;33449;50.712;7.124;2022-12-08T06:41:10;19.45;;;11.00;;
46701;SDS011;33449;50.712;7.124;2022-12-08T06:43:37;21.77;;;9.20;;
46701;SDS011;33449;50.712;7.124;2022-12-08T06:46:08;18.40;;;9.60;;
46701;SDS011;33449;50.712;7.124;2022-12-08T06:48:37;21.35;;;9.43;;
46701;SDS011;33449;50.712;7.124;2022-12-08T06:51:08;20.55;;;8.98;;
46701;SDS011;33449;50.712;7.124;2022-12-08T06:53:36;17.35;;;8.98;;
46701;SDS011;33449;50.712;7.124;2022-12-08T06:58:48;20.83;;;8.85;;
46701;SDS011;33449;50.712;7.124;2022-12-08T07:01:18;19.40;;;8.85;;
46701;SDS011;33449;50.712;7.124;2022-12-08T07:03:44;17.67;;;8.68;;
46701;SDS011;33449;50.712;7.124;2022-12-08T07:06:14;20.88;;;10.35;;
46701;SDS011;33449;50.712;7.124;2022-12-08T07:08:43;17.65;;;8.65;;
46701;SDS011;33449;50.712;7.124;2022-12-08T07:11:10;18.55;;;9.93;;
46701;SDS011;33449;50.712;7.124;2022-12-08T07:13:43;19.42;;;7.88;;
46701;SDS011;33449;50.712;7.124;2022-12-08T07:16:10;15.93;;;7.53;;
46701;SDS011;33449;50.712;7.124;2022-12-08T07:18:37;16.75;;;8.10;;
46701;SDS011;33449;50.712;7.124;2022-12-08T07:21:05;19.50;;;8.68;;
46701;SDS011;33449;50.712;7.124;2022-12-08T07:23:33;14.65;;;8.02;;
46701;SDS011;33449;50.712;7.124;2022-12-08T07:26:04;17.13;;;8.27;;
46701;SDS011;33449;50.712;7.124;2022-12-08T07:28:33;15.68;;;8.05;;
46701;SDS011;33449;50.712;7.124;2022-12-08T07:33:38;14.93;;;7.60;;
46701;SDS011;33449;50.712;7.124;2022-12-08T07:36:07;17.95;;;7.50;;
46701;SDS011;33449;50.712;7.124;2022-12-08T07:38:34;14.95;;;7.53;;
46701;SDS011;33449;50.712;7.124;2022-12-08T07:41:02;12.82;;;7.75;;
46701;SDS011;33449;50.712;7.124;2022-12-08T07:43:29;12.60;;;6.45;;
46701;SDS011;33449;50.712;7.124;2022-12-08T07:48:40;14.75;;;6.50;;
46701;SDS011;33449;50.712;7.124;2022-12-08T07:51:07;12.32;;;6.07;;
46701;SDS011;33449;50.712;7.124;2022-12-08T07:53:34;14.18;;;6.85;;
46701;SDS011;33449;50.712;7.124;2022-12-08T07:56:04;12.75;;;6.35;;
46701;SDS011;33449;50.712;7.124;2022-12-08T08:03:31;13.05;;;5.60;;
46701;SDS011;33449;50.712;7.124;2022-12-08T08:06:02;14.10;;;7.35;;
46701;SDS011;33449;50.712;7.124;2022-12-08T08:08:29;14.30;;;6.90;;
46701;SDS011;33449;50.712;7.124;2022-12-08T08:10:57;13.30;;;6.35;;
46701;SDS011;33449;50.712;7.124;2022-12-08T08:13:23;15.50;;;6.80;;
46701;SDS011;33449;50.712;7.124;2022-12-08T08:18:30;12.73;;;6.22;;
46701;SDS011;33449;50.712;7.124;2022-12-08T08:21:00;11.52;;;6.00;;
46701;SDS011;33449;50.712;7.124;2022-12-08T08:23:47;11.07;;;6.00;;
46701;SDS011;33449;50.712;7.124;2022-12-08T08:26:14;11.60;;;6.43;;
46701;SDS011;33449;50.712;7.124;2022-12-08T08:28:41;14.30;;;7.38;;
46701;SDS011;33449;50.712;7.124;2022-12-08T08:31:11;14.02;;;6.82;;
46701;SDS011;33449;50.712;7.124;2022-12-08T08:33:38;12.52;;;6.78;;
46701;SDS011;33449;50.712;7.124;2022-12-08T08:36:05;12.90;;;6.10;;
46701;SDS011;33449;50.712;7.124;2022-12-08T08:38:34;12.30;;;6.82;;
46701;SDS011;33449;50.712;7.124;2022-12-08T08:41:06;11.02;;;6.20;;
46701;SDS011;33449;50.712;7.124;2022-12-08T08:43:34;12.85;;;7.07;;
46701;SDS011;33449;50.712;7.124;2022-12-08T08:46:04;11.88;;;6.45;;
46701;SDS011;33449;50.712;7.124;2022-12-08T08:48:31;12.48;;;6.82;;
46701;SDS011;33449;50.712;7.124;2022-12-08T08:51:05;14.32;;;6.30;;
46701;SDS011;33449;50.712;7.124;2022-12-08T08:53:32;12.50;;;6.97;;
46701;SDS011;33449;50.712;7.124;2022-12-08T08:55:59;12.88;;;6.20;;
46701;SDS011;33449;50.712;7.124;2022-12-08T08:58:28;12.80;;;6.68;;
46701;SDS011;33449;50.712;7.124;2022-12-08T09:03:25;15.88;;;7.63;;
46701;SDS011;33449;50.712;7.124;2022-12-08T09:05:53;10.77;;;6.70;;
46701;SDS011;33449;50.712;7.124;2022-12-08T09:08:21;13.15;;;7.40;;
46701;SDS011;33449;50.712;7.124;2022-12-08T09:10:48;13.07;;;7.30;;
46701;SDS011;33449;50.712;7.124;2022-12-08T09:13:15;20.65;;;8.63;;
46701;SDS011;33449;50.712;7.124;2022-12-08T09:18:16;19.25;;;6.93;;
46701;SDS011;33449;50.712;7.124;2022-12-08T09:20:43;13.25;;;7.65;;
46701;SDS011;33449;50.712;7.124;2022-12-08T09:23:10;13.80;;;7.13;;
46701;SDS011;33449;50.712;7.124;2022-12-08T09:25:38;14.75;;;5.85;;
46701;SDS011;33449;50.712;7.124;2022-12-08T09:28:04;10.10;;;5.65;;
46701;SDS011;33449;50.712;7.124;2022-12-08T09:35:40;17.02;;;6.65;;
46701;SDS011;33449;50.712;7.124;2022-12-08T09:38:07;14.35;;;6.15;;
46701;SDS011;33449;50.712;7.124;2022-12-08T09:40:36;11.48;;;6.20;;
46701;SDS011;33449;50.712;7.124;2022-12-08T09:48:14;10.73;;;6.70;;
46701;SDS011;33449;50.712;7.124;2022-12-08T09:50:44;13.68;;;6.80;;
46701;SDS011;33449;50.712;7.124;2022-12-08T09:53:20;14.65;;;6.20;;
46701;SDS011;33449;50.712;7.124;2022-12-08T09:56:02;9.50;;;5.82;;
46701;SDS011;33449;50.712;7.124;2022-12-08T10:01:17;12.85;;;7.00;;
46701;SDS011;33449;50.712;7.124;2022-12-08T10:03:45;11.13;;;6.15;;
46701;SDS011;33449;50.712;7.124;2022-12-08T10:17:02;12.98;;;5.70;;
46701;SDS011;33449;50.712;7.124;2022-12-08T10:19:38;8.75;;;5.68;;
46701;SDS011;33449;50.712;7.124;2022-12-08T10:22:22;13.77;;;6.47;;
46701;SDS011;33449;50.712;7.124;2022-12-08T10:30:09;7.10;;;4.00;;
46701;SDS011;33449;50.712;7.124;2022-12-08T10:32:38;8.13;;;4.47;;
46701;SDS011;33449;50.712;7.124;2022-12-08T10:35:07;16.55;;;5.13;;
46701;SDS011;33449;50.712;7.124;2022-12-08T10:40:16;9.65;;;4.82;;
46701;SDS011;33449;50.712;7.124;2022-12-08T10:42:57;10.65;;;4.82;;
46701;SDS011;33449;50.712;7.124;2022-12-08T10:50:58;7.95;;;5.15;;
46701;SDS011;33449;50.712;7.124;2022-12-08T10:53:26;8.60;;;4.47;;
46701;SDS011;33449;50.712;7.124;2022-12-08T10:58:30;8.52;;;4.63;;
46701;SDS011;33449;50.712;7.124;2022-12-08T11:01:04;9.98;;;4.53;;
46701;SDS011;33449;50.712;7.124;2022-12-08T11:03:50;11.18;;;5.65;;
46701;SDS011;33449;50.712;7.124;2022-12-08T11:11:44;11.50;;;4.72;;
46701;SDS011;33449;50.712;7.124;2022-12-08T11:16:55;12.02;;;5.65;;
46701;SDS011;33449;50.712;7.124;2022-12-08T11:19:29;10.15;;;6.13;;
46701;SDS011;33449;50.712;7.124;2022-12-08T11:21:56;12.05;;;5.72;;
46701;SDS011;33449;50.712;7.124;2022-12-08T11:24:24;12.38;;;5.10;;
46701;SDS011;33449;50.712;7.124;2022-12-08T11:27:00;9.18;;;5.20;;
46701;SDS011;33449;50.712;7.124;2022-12-08T11:29:36;12.02;;;5.63;;
46701;SDS011;33449;50.712;7.124;2022-12-08T11:32:11;13.45;;;5.75;;
46701;SDS011;33449;50.712;7.124;2022-12-08T11:34:43;9.52;;;4.85;;
46701;SDS011;33449;50.712;7.124;2022-12-08T11:37:17;18.23;;;9.07;;
46701;SDS011;33449;50.712;7.124;2022-12-08T11:39:48;12.77;;;5.22;;
46701;SDS011;33449;50.712;7.124;2022-12-08T11:42:17;9.48;;;5.28;;
46701;SDS011;33449;50.712;7.124;2022-12-08T11:44:49;10.60;;;4.57;;
46701;SDS011;33449;50.712;7.124;2022-12-08T11:47:23;8.95;;;5.00;;
46701;SDS011;33449;50.712;7.124;2022-12-08T11:49:56;13.65;;;5.00;;
46701;SDS011;33449;50.712;7.124;2022-12-08T11:52:31;11.70;;;4.28;;
46701;SDS011;33449;50.712;7.124;2022-12-08T11:57:46;10.38;;;3.72;;
46701;SDS011;33449;50.712;7.124;2022-12-08T12:00:14;13.25;;;4.75;;
46701;SDS011;33449;50.712;7.124;2022-12-08T12:02:44;9.93;;;4.07;;
46701;SDS011;33449;50.712;7.124;2022-12-08T12:20:28;7.45;;;3.22;;
46701;SDS011;33449;50.712;7.124;2022-12-08T12:26:00;10.90;;;3.42;;
46701;SDS011;33449;50.712;7.124;2022-12-08T12:28:30;9.75;;;4.45;;
46701;SDS011;33449;50.712;7.124;2022-12-08T12:31:12;9.18;;;4.03;;
46701;SDS011;33449;50.712;7.124;2022-12-08T12:33:42;10.77;;;4.80;;
46701;SDS011;33449;50.712;7.124;2022-12-08T12:41:37;8.73;;;4.47;;
46701;SDS011;33449;50.712;7.124;2022-12-08T12:54:40;9.57;;;4.38;;
46701;SDS011;33449;50.712;7.124;2022-12-08T13:05:29;7.07;;;3.67;;
46701;SDS011;33449;50.712;7.124;2022-12-08T13:08:02;7.13;;;3.53;;
46701;SDS011;33449;50.712;7.124;2022-12-08T13:10:34;9.45;;;4.57;;
46701;SDS011;33449;50.712;7.124;2022-12-08T13:15:37;7.00;;;3.20;;
46701;SDS011;33449;50.712;7.124;2022-12-08T13:37:12;3.65;;;1.85;;
46701;SDS011;33449;50.712;7.124;2022-12-08T13:39:50;5.00;;;1.88;;
46701;SDS011;33449;50.712;7.124;2022-12-08T13:42:41;4.22;;;2.17;;
46701;SDS011;33449;50.712;7.124;2022-12-08T13:45:38;4.97;;;2.03;;
46701;SDS011;33449;50.712;7.124;2022-12-08T13:48:31;4.45;;;2.00;;
46701;SDS011;33449;50.712;7.124;2022-12-08T13:51:34;4.72;;;2.45;;
46701;SDS011;33449;50.712;7.124;2022-12-08T13:54:28;5.82;;;2.17;;
46701;SDS011;33449;50.712;7.124;2022-12-08T13:57:32;7.78;;;2.75;;
46701;SDS011;33449;50.712;7.124;2022-12-08T14:00:06;7.25;;;2.50;;
46701;SDS011;33449;50.712;7.124;2022-12-08T14:08:28;8.93;;;3.67;;
46701;SDS011;33449;50.712;7.124;2022-12-08T14:11:23;5.63;;;2.28;;
46701;SDS011;33449;50.712;7.124;2022-12-08T14:17:22;8.88;;;3.22;;
46701;SDS011;33449;50.712;7.124;2022-12-08T14:24:56;8.77;;;2.50;;
46701;SDS011;33449;50.712;7.124;2022-12-08T14:27:24;8.30;;;3.03;;
46701;SDS011;33449;50.712;7.124;2022-12-08T14:30:05;5.40;;;2.65;;
46701;SDS011;33449;50.712;7.124;2022-12-08T14:38:16;5.82;;;2.95;;
46701;SDS011;33449;50.712;7.124;2022-12-08T14:40:49;7.10;;;2.40;;
46701;SDS011;33449;50.712;7.124;2022-12-08T14:43:26;4.63;;;2.33;;
46701;SDS011;33449;50.712;7.124;2022-12-08T14:46:01;7.80;;;2.67;;
46701;SDS011;33449;50.712;7.124;2022-12-08T14:59:17;5.38;;;2.72;;
46701;SDS011;33449;50.712;7.124;2022-12-08T15:05:00;6.85;;;2.95;;
46701;SDS011;33449;50.712;7.124;2022-12-08T15:07:47;5.78;;;2.72;;
46701;SDS011;33449;50.712;7.124;2022-12-08T15:15:30;10.10;;;3.40;;
46701;SDS011;33449;50.712;7.124;2022-12-08T15:18:11;5.22;;;2.67;;
46701;SDS011;33449;50.712;7.124;2022-12-08T15:26:02;5.40;;;2.65;;
46701;SDS011;33449;50.712;7.124;2022-12-08T15:28:29;7.63;;;3.45;;
46701;SDS011;33449;50.712;7.124;2022-12-08T15:30:56;7.05;;;3.10;;
46701;SDS011;33449;50.712;7.124;2022-12-08T15:33:24;10.05;;;2.85;;
46701;SDS011;33449;50.712;7.124;2022-12-08T15:35:50;9.18;;;3.28;;
46701;SDS011;33449;50.712;7.124;2022-12-08T15:49:58;7.70;;;2.88;;
46701;SDS011;33449;50.712;7.124;2022-12-08T15:52:25;6.25;;;2.35;;
46701;SDS011;33449;50.712;7.124;2022-12-08T15:54:53;6.13;;;2.92;;
46701;SDS011;33449;50.712;7.124;2022-12-08T15:57:26;5.07;;;2.25;;
46701;SDS011;33449;50.712;7.124;2022-12-08T16:03:19;5.43;;;2.30;;
46701;SDS011;33449;50.712;7.124;2022-12-08T16:06:17;4.15;;;2.42;;
46701;SDS011;33449;50.712;7.124;2022-12-08T16:09:07;5.75;;;4.00;;
46701;SDS011;33449;50.712;7.124;2022-12-08T16:11:43;7.75;;;2.72;;
46701;SDS011;33449;50.712;7.124;2022-12-08T16:14:33;3.88;;;2.00;;
46701;SDS011;33449;50.712;7.124;2022-12-08T16:19:48;5.15;;;2.38;;
46701;SDS011;33449;50.712;7.124;2022-12-08T16:22:19;5.20;;;2.20;;
46701;SDS011;33449;50.712;7.124;2022-12-08T16:25:07;6.28;;;2.53;;
46701;SDS011;33449;50.712;7.124;2022-12-08T16:27:45;6.00;;;2.78;;
46701;SDS011;33449;50.712;7.124;2022-12-08T16:30:32;4.22;;;2.28;;
46701;SDS011;33449;50.712;7.124;2022-12-08T16:33:02;11.75;;;3.40;;
46701;SDS011;33449;50.712;7.124;2022-12-08T16:40:39;8.93;;;2.72;;
46701;SDS011;33449;50.712;7.124;2022-12-08T16:43:39;5.30;;;2.13;;
46701;SDS011;33449;50.712;7.124;2022-12-08T16:46:13;3.15;;;1.98;;
46701;SDS011;33449;50.712;7.124;2022-12-08T16:48:43;3.83;;;1.70;;
46701;SDS011;33449;50.712;7.124;2022-12-08T16:51:16;8.73;;;2.60;;
46701;SDS011;33449;50.712;7.124;2022-12-08T16:53:52;3.38;;;2.15;;
46701;SDS011;33449;50.712;7.124;2022-12-08T16:56:21;3.38;;;1.92;;
46701;SDS011;33449;50.712;7.124;2022-12-08T17:07:05;5.38;;;2.95;;
46701;SDS011;33449;50.712;7.124;2022-12-08T17:09:31;4.68;;;2.35;;
46701;SDS011;33449;50.712;7.124;2022-12-08T17:11:58;5.13;;;2.25;;
46701;SDS011;33449;50.712;7.124;2022-12-08T17:19:43;5.82;;;2.40;;
46701;SDS011;33449;50.712;7.124;2022-12-08T17:22:10;11.65;;;3.47;;
46701;SDS011;33449;50.712;7.124;2022-12-08T17:24:38;8.48;;;3.53;;
46701;SDS011;33449;50.712;7.124;2022-12-08T17:27:05;5.60;;;2.67;;
46701;SDS011;33449;50.712;7.124;2022-12-08T17:29:32;7.28;;;3.28;;
46701;SDS011;33449;50.712;7.124;2022-12-08T17:34:34;7.28;;;3.33;;
46701;SDS011;33449;50.712;7.124;2022-12-08T17:37:01;8.10;;;3.65;;
46701;SDS011;33449;50.712;7.124;2022-12-08T17:39:28;7.90;;;3.80;;
46701;SDS011;33449;50.712;7.124;2022-12-08T17:41:55;6.82;;;3.15;;
46701;SDS011;33449;50.712;7.124;2022-12-08T17:44:22;6.57;;;3.67;;
46701;SDS011;33449;50.712;7.124;2022-12-08T17:49:25;7.95;;;3.53;;
46701;SDS011;33449;50.712;7.124;2022-12-08T17:51:54;8.25;;;4.47;;
46701;SDS011;33449;50.712;7.124;2022-12-08T17:54:22;9.00;;;4.47;;
46701;SDS011;33449;50.712;7.124;2022-12-08T17:56:49;6.45;;;4.07;;
46701;SDS011;33449;50.712;7.124;2022-12-08T17:59:16;9.82;;;4.50;;
46701;SDS011;33449;50.712;7.124;2022-12-08T18:04:37;7.80;;;4.63;;
46701;SDS011;33449;50.712;7.124;2022-12-08T18:07:29;10.20;;;4.25;;
46701;SDS011;33449;50.712;7.124;2022-12-08T18:09:55;9.73;;;4.97;;
46701;SDS011;33449;50.712;7.124;2022-12-08T18:12:23;7.82;;;5.20;;
46701;SDS011;33449;50.712;7.124;2022-12-08T18:14:49;8.85;;;4.63;;
46701;SDS011;33449;50.712;7.124;2022-12-08T18:17:18;8.25;;;4.63;;
46701;SDS011;33449;50.712;7.124;2022-12-08T18:25:20;11.77;;;5.20;;
46701;SDS011;33449;50.712;7.124;2022-12-08T18:27:47;9.38;;;4.85;;
46701;SDS011;33449;50.712;7.124;2022-12-08T18:30:15;8.05;;;5.22;;
46701;SDS011;33449;50.712;7.124;2022-12-08T18:32:43;11.50;;;5.68;;
46701;SDS011;33449;50.712;7.124;2022-12-08T18:35:11;9.57;;;5.03;;
46701;SDS011;33449;50.712;7.124;2022-12-08T18:40:15;10.13;;;5.32;;
46701;SDS011;33449;50.712;7.124;2022-12-08T18:42:43;10.25;;;4.82;;
46701;SDS011;33449;50.712;7.124;2022-12-08T18:45:10;10.45;;;5.90;;
46701;SDS011;33449;50.712;7.124;2022-12-08T18:47:37;9.60;;;5.40;;
46701;SDS011;33449;50.712;7.124;2022-12-08T18:50:06;13.98;;;5.68;;
46701;SDS011;33449;50.712;7.124;2022-12-08T18:55:12;9.40;;;5.05;;
46701;SDS011;33449;50.712;7.124;2022-12-08T18:57:39;13.60;;;5.80;;
46701;SDS011;33449;50.712;7.124;2022-12-08T19:00:09;7.53;;;5.28;;
46701;SDS011;33449;50.712;7.124;2022-12-08T19:02:38;9.38;;;6.05;;
46701;SDS011;33449;50.712;7.124;2022-12-08T19:05:06;9.18;;;5.30;;
46701;SDS011;33449;50.712;7.124;2022-12-08T19:13:12;10.40;;;5.65;;
46701;SDS011;33449;50.712;7.124;2022-12-08T19:15:40;13.18;;;6.00;;
46701;SDS011;33449;50.712;7.124;2022-12-08T19:18:07;12.00;;;5.55;;
46701;SDS011;33449;50.712;7.124;2022-12-08T19:20:34;15.05;;;6.47;;
46701;SDS011;33449;50.712;7.124;2022-12-08T19:23:02;11.88;;;6.25;;
46701;SDS011;33449;50.712;7.124;2022-12-08T19:33:32;9.55;;;5.47;;
46701;SDS011;33449;50.712;7.124;2022-12-08T19:36:03;10.68;;;5.32;;
46701;SDS011;33449;50.712;7.124;2022-12-08T19:38:33;14.50;;;6.97;;
46701;SDS011;33449;50.712;7.124;2022-12-08T19:41:20;11.25;;;6.30;;
46701;SDS011;33449;50.712;7.124;2022-12-08T19:44:14;11.20;;;5.80;;
46701;SDS011;33449;50.712;7.124;2022-12-08T19:46:52;8.48;;;5.32;;
46701;SDS011;33449;50.712;7.124;2022-12-08T19:52:02;12.93;;;6.40;;
46701;SDS011;33449;50.712;7.124;2022-12-08T19:54:29;10.10;;;6.07;;
46701;SDS011;33449;50.712;7.124;2022-12-08T19:56:56;10.82;;;5.43;;
46701;SDS011;33449;50.712;7.124;2022-12-08T19:59:23;16.02;;;5.88;;
46701;SDS011;33449;50.712;7.124;2022-12-08T20:01:58;11.60;;;5.78;;
46701;SDS011;33449;50.712;7.124;2022-12-08T20:07:10;12.02;;;5.78;;
46701;SDS011;33449;50.712;7.124;2022-12-08T20:09:58;14.32;;;5.38;;
46701;SDS011;33449;50.712;7.124;2022-12-08T20:12:25;11.75;;;5.88;;
46701;SDS011;33449;50.712;7.124;2022-12-08T20:14:52;10.68;;;6.63;;
46701;SDS011;33449;50.712;7.124;2022-12-08T20:17:19;10.48;;;5.85;;
46701;SDS011;33449;50.712;7.124;2022-12-08T20:19:46;11.18;;;6.32;;
46701;SDS011;33449;50.712;7.124;2022-12-08T20:22:13;15.15;;;6.00;;
46701;SDS011;33449;50.712;7.124;2022-12-08T20:24:40;11.45;;;6.45;;
46701;SDS011;33449;50.712;7.124;2022-12-08T20:27:07;15.20;;;6.40;;
46701;SDS011;33449;50.712;7.124;2022-12-08T20:29:35;13.93;;;6.53;;
46701;SDS011;33449;50.712;7.124;2022-12-08T20:32:02;17.58;;;8.25;;
46701;SDS011;33449;50.712;7.124;2022-12-08T20:34:29;13.60;;;7.72;;
46701;SDS011;33449;50.712;7.124;2022-12-08T20:36:56;16.35;;;8.18;;
46701;SDS011;33449;50.712;7.124;2022-12-08T20:39:23;16.40;;;6.68;;
46701;SDS011;33449;50.712;7.124;2022-12-08T20:41:50;14.98;;;6.80;;
46701;SDS011;33449;50.712;7.124;2022-12-08T20:44:19;17.65;;;8.40;;
46701;SDS011;33449;50.712;7.124;2022-12-08T20:46:46;12.77;;;7.50;;
46701;SDS011;33449;50.712;7.124;2022-12-08T20:49:15;13.65;;;7.45;;
46701;SDS011;33449;50.712;7.124;2022-12-08T20:51:41;13.70;;;6.80;;
46701;SDS011;33449;50.712;7.124;2022-12-08T20:54:09;11.10;;;6.18;;
46701;SDS011;33449;50.712;7.124;2022-12-08T20:56:37;13.82;;;6.25;;
46701;SDS011;33449;50.712;7.124;2022-12-08T20:59:15;13.35;;;5.70;;
46701;SDS011;33449;50.712;7.124;2022-12-08T21:01:43;10.50;;;5.63;;
46701;SDS011;33449;50.712;7.124;2022-12-08T21:04:11;11.75;;;6.13;;
46701;SDS011;33449;50.712;7.124;2022-12-08T21:06:38;12.55;;;6.80;;
46701;SDS011;33449;50.712;7.124;2022-12-08T21:09:05;12.13;;;5.28;;
46701;SDS011;33449;50.712;7.124;2022-12-08T21:11:33;15.23;;;7.00;;
46701;SDS011;33449;50.712;7.124;2022-12-08T21:14:02;12.10;;;5.30;;